Time;durP1;ratioP1;P1;durP2;ratioP2;P2;SDS_P1;SDS_P2;PMS_P1;PMS_P2;Temp;Humidity;BMP_temperature;BMP_pressure;BME280_temperature;BME280_humidity;BME280_pressure;Samples;Min_cycle;Max_cycle;Signal;HPM_P1;HPM_P2
2023/03/01 00:01:50;;;;;;;16.52;10.52;;;-2.20;99.90;;;;;;4917396;28;20042;-78
2023/03/01 00:04:16;;;;;;;13.25;9.80;;;-2.20;99.90;;;;;;4932920;28;20032;-78
2023/03/01 00:06:48;;;;;;;16.33;10.10;;;-2.20;99.90;;;;;;4914133;28;20050;-77
2023/03/01 00:09:14;;;;;;;19.48;10.70;;;-2.20;99.90;;;;;;4927492;28;20149;-79
2023/03/01 00:11:39;;;;;;;13.85;10.23;;;-2.30;99.90;;;;;;4941575;28;20043;-77
2023/03/01 00:14:06;;;;;;;16.23;10.70;;;-2.30;99.90;;;;;;4917598;28;20083;-77
2023/03/01 00:16:33;;;;;;;20.60;10.68;;;-2.30;99.90;;;;;;4910345;29;20032;-78
2023/03/01 00:18:59;;;;;;;12.43;10.07;;;-2.40;99.90;;;;;;4914716;28;20469;-77
2023/03/01 00:21:25;;;;;;;15.40;10.35;;;-2.30;99.90;;;;;;4942159;28;20075;-77
2023/03/01 00:23:50;;;;;;;16.00;10.15;;;-2.20;99.90;;;;;;4926686;28;20042;-78
2023/03/01 00:26:16;;;;;;;14.95;9.90;;;-2.20;99.90;;;;;;4913035;29;20062;-77
2023/03/01 00:28:42;;;;;;;14.18;9.95;;;-2.30;99.90;;;;;;4909008;28;20079;-78
2023/03/01 00:31:10;;;;;;;20.75;10.48;;;-2.30;99.90;;;;;;4893985;28;20055;-77
2023/03/01 00:33:35;;;;;;;17.60;11.43;;;-2.30;99.90;;;;;;4931203;29;20032;-78
2023/03/01 00:36:01;;;;;;;15.48;10.75;;;-2.30;99.90;;;;;;4926765;28;20039;-77
2023/03/01 00:38:27;;;;;;;17.38;9.88;;;-2.40;99.90;;;;;;4912404;29;20054;-77
2023/03/01 00:40:52;;;;;;;17.75;10.60;;;-2.60;99.90;;;;;;4924978;28;20042;-77
2023/03/01 00:43:18;;;;;;;17.23;9.52;;;-2.60;99.90;;;;;;4895568;29;20406;-77
2023/03/01 00:45:44;;;;;;;21.88;10.73;;;-2.60;99.90;;;;;;4913652;28;20457;-78
2023/03/01 00:48:10;;;;;;;16.08;9.80;;;-2.50;99.90;;;;;;4930593;28;20027;-77
2023/03/01 00:50:35;;;;;;;16.23;10.45;;;-2.60;99.90;;;;;;4913361;29;20031;-77
2023/03/01 00:53:01;;;;;;;20.38;10.68;;;-2.70;99.90;;;;;;4945103;28;20027;-77
2023/03/01 00:55:26;;;;;;;16.08;10.48;;;-2.50;99.90;;;;;;4925206;28;20038;-77
2023/03/01 00:57:52;;;;;;;19.13;11.55;;;-2.60;99.90;;;;;;4934897;28;20378;-77
2023/03/01 01:00:18;;;;;;;14.35;9.60;;;-2.60;99.90;;;;;;4942947;28;20024;-77
2023/03/01 01:02:44;;;;;;;18.85;11.15;;;-2.60;99.90;;;;;;4897810;28;20035;-76
2023/03/01 01:05:09;;;;;;;15.57;10.32;;;-2.50;99.90;;;;;;4930613;28;20035;-77
2023/03/01 01:07:35;;;;;;;16.45;10.02;;;-2.50;99.90;;;;;;4945772;28;20398;-77
2023/03/01 01:10:00;;;;;;;19.95;10.88;;;-2.60;99.90;;;;;;4927378;28;20091;-77
2023/03/01 01:12:26;;;;;;;22.02;11.27;;;-2.70;99.90;;;;;;4939487;28;20063;-77
2023/03/01 01:14:51;;;;;;;15.48;10.50;;;-2.80;99.90;;;;;;4914110;28;20463;-77
2023/03/01 01:17:17;;;;;;;16.67;10.32;;;-2.90;99.90;;;;;;4925148;29;20654;-77
2023/03/01 01:19:43;;;;;;;18.17;10.18;;;-3.00;99.90;;;;;;4929507;28;20505;-77
2023/03/01 01:22:08;;;;;;;15.32;10.18;;;-3.00;99.90;;;;;;4903849;28;20050;-77
2023/03/01 01:24:34;;;;;;;17.17;10.63;;;-3.00;99.90;;;;;;4926942;28;20047;-77
2023/03/01 01:27:00;;;;;;;18.83;11.27;;;-3.00;99.90;;;;;;4956129;28;20510;-77
2023/03/01 01:29:25;;;;;;;19.05;11.20;;;-2.90;99.90;;;;;;4920697;29;20119;-77
2023/03/01 01:31:51;;;;;;;21.70;10.88;;;-3.00;99.90;;;;;;4929133;28;20034;-77
2023/03/01 01:34:18;;;;;;;18.30;11.70;;;-3.10;99.90;;;;;;4916908;28;20035;-76
2023/03/01 01:36:44;;;;;;;20.13;11.10;;;-3.10;99.90;;;;;;4931965;28;20031;-78
2023/03/01 01:39:12;;;;;;;19.67;10.43;;;-3.10;99.90;;;;;;4915234;28;20098;-77
2023/03/01 01:41:39;;;;;;;19.33;11.25;;;-3.10;99.90;;;;;;4914099;28;20046;-78
2023/03/01 01:44:11;;;;;;;19.48;10.68;;;-3.10;99.90;;;;;;4935073;28;20039;-77
2023/03/01 01:46:49;;;;;;;22.15;12.00;;;-3.10;99.90;;;;;;4946890;28;20426;-77
2023/03/01 01:49:33;;;;;;;20.83;11.50;;;-3.30;99.90;;;;;;4934465;28;20044;-77
2023/03/01 01:52:13;;;;;;;16.25;10.88;;;-3.30;99.90;;;;;;4944786;28;20470;-77
2023/03/01 01:55:06;;;;;;;16.38;10.65;;;-3.30;99.90;;;;;;4930399;28;20035;-77
2023/03/01 01:57:45;;;;;;;15.68;11.05;;;-3.30;99.90;;;;;;4935280;28;20033;-77
2023/03/01 02:00:21;;;;;;;24.58;11.27;;;-3.40;99.90;;;;;;4942561;28;20039;-77
2023/03/01 02:02:48;;;;;;;17.02;10.93;;;-3.40;99.90;;;;;;4943148;28;20035;-77
2023/03/01 02:05:25;;;;;;;17.33;11.18;;;-3.50;99.90;;;;;;4919667;28;20086;-77
2023/03/01 02:07:50;;;;;;;16.33;10.07;;;-3.50;99.90;;;;;;4926779;28;20082;-78
2023/03/01 02:10:16;;;;;;;17.15;11.00;;;-3.50;99.90;;;;;;4913127;29;20040;-77
2023/03/01 02:12:42;;;;;;;21.17;11.95;;;-3.40;99.90;;;;;;4914646;28;20134;-77
2023/03/01 02:15:08;;;;;;;19.45;11.40;;;-3.30;99.90;;;;;;4928847;28;20492;-77
2023/03/01 02:17:34;;;;;;;16.02;11.20;;;-3.20;99.90;;;;;;4926122;28;20546;-76
2023/03/01 02:20:23;;;;;;;22.70;11.43;;;-3.30;99.90;;;;;;4934095;28;20514;-77
2023/03/01 02:22:48;;;;;;;15.75;10.02;;;-3.20;99.90;;;;;;4943426;28;20418;-77
2023/03/01 02:25:19;;;;;;;18.17;10.85;;;-3.30;99.90;;;;;;4919471;28;20039;-76
2023/03/01 02:28:05;;;;;;;16.15;11.05;;;-3.30;99.90;;;;;;4951767;28;20041;-77
2023/03/01 02:30:31;;;;;;;24.85;11.40;;;-3.40;99.90;;;;;;4927949;28;20048;-77
2023/03/01 02:33:02;;;;;;;16.65;9.98;;;-3.50;99.90;;;;;;4927916;28;20104;-76
2023/03/01 02:35:28;;;;;;;18.73;11.65;;;-3.50;99.90;;;;;;4913211;28;20023;-77
2023/03/01 02:37:56;;;;;;;18.35;11.35;;;-3.50;99.90;;;;;;4925618;28;20094;-77
2023/03/01 02:40:22;;;;;;;22.08;11.57;;;-3.60;99.90;;;;;;4926580;28;20483;-77
2023/03/01 02:42:51;;;;;;;22.38;11.70;;;-3.60;99.90;;;;;;4916385;28;20039;-77
2023/03/01 02:45:17;;;;;;;18.45;11.50;;;-3.70;99.90;;;;;;4932516;28;20503;-77
2023/03/01 02:47:42;;;;;;;19.25;11.75;;;-3.70;99.90;;;;;;4923470;28;20028;-76
2023/03/01 02:50:29;;;;;;;22.83;13.15;;;-3.70;99.90;;;;;;4930681;28;20043;-77
2023/03/01 02:52:58;;;;;;;20.42;11.93;;;-3.70;99.90;;;;;;4943940;28;20034;-77
2023/03/01 02:55:24;;;;;;;18.10;10.77;;;-3.40;99.90;;;;;;4952945;28;20480;-76
2023/03/01 02:57:50;;;;;;;21.23;12.25;;;-3.40;99.90;;;;;;4938027;28;20118;-76
2023/03/01 03:00:21;;;;;;;20.13;11.80;;;-3.50;99.90;;;;;;4913839;28;20031;-76
2023/03/01 03:02:48;;;;;;;19.77;10.82;;;-3.80;99.90;;;;;;4926869;28;20063;-76
2023/03/01 03:05:16;;;;;;;18.60;12.25;;;-4.00;99.90;;;;;;4944176;28;20035;-76
2023/03/01 03:07:43;;;;;;;21.73;11.55;;;-4.00;99.90;;;;;;4912839;28;20122;-76
2023/03/01 03:10:14;;;;;;;18.40;11.77;;;-4.00;99.90;;;;;;4927929;28;20506;-76
2023/03/01 03:12:39;;;;;;;18.40;12.23;;;-4.00;99.90;;;;;;4955117;28;20036;-76
2023/03/01 03:15:08;;;;;;;22.23;13.00;;;-3.90;99.90;;;;;;4921165;28;20427;-76
2023/03/01 03:17:38;;;;;;;20.95;12.50;;;-3.90;99.90;;;;;;4949243;28;20124;-76
2023/03/01 03:20:10;;;;;;;23.38;12.50;;;-4.00;99.90;;;;;;4930315;28;20514;-76
2023/03/01 03:22:37;;;;;;;18.52;12.10;;;-4.00;99.90;;;;;;4947038;28;20034;-77
2023/03/01 03:25:03;;;;;;;21.98;12.25;;;-3.90;99.90;;;;;;4937800;28;20039;-77
2023/03/01 03:27:28;;;;;;;19.73;11.65;;;-4.00;99.90;;;;;;4931835;28;20398;-77
2023/03/01 03:29:54;;;;;;;19.85;12.50;;;-3.90;99.90;;;;;;4941375;28;20515;-77
2023/03/01 03:32:19;;;;;;;20.80;12.13;;;-3.90;99.90;;;;;;4944173;28;20513;-77
2023/03/01 03:34:45;;;;;;;18.52;11.57;;;-4.10;99.90;;;;;;4929694;28;20502;-77
2023/03/01 03:38:01;;;;;;;21.70;11.70;;;-4.10;99.90;;;;;;4914839;28;20185;-77
2023/03/01 03:39:56;;;;;;;19.80;11.60;;;-4.30;99.90;;;;;;4930122;28;20043;-76
2023/03/01 03:42:22;;;;;;;22.73;12.27;;;-4.30;99.90;;;;;;4947772;28;20035;-77
2023/03/01 03:44:48;;;;;;;21.67;12.35;;;-4.40;99.90;;;;;;4951368;28;20388;-76
2023/03/01 03:47:13;;;;;;;24.65;12.88;;;-4.40;99.90;;;;;;4930715;28;20038;-77
2023/03/01 03:49:39;;;;;;;24.33;12.82;;;-4.40;99.90;;;;;;4932888;28;20050;-77
2023/03/01 03:52:04;;;;;;;21.17;12.10;;;-4.30;99.90;;;;;;4955195;28;20039;-77
2023/03/01 03:54:30;;;;;;;26.33;13.93;;;-4.30;99.90;;;;;;4947633;28;20117;-77
2023/03/01 03:56:55;;;;;;;21.83;12.85;;;-4.30;99.90;;;;;;4935353;28;20510;-77
2023/03/01 03:59:21;;;;;;;23.42;12.70;;;-4.30;99.90;;;;;;4928790;28;20143;-76
2023/03/01 04:01:47;;;;;;;20.55;12.20;;;-4.30;99.90;;;;;;4954154;28;20118;-76
2023/03/01 04:04:13;;;;;;;23.27;12.57;;;-4.20;99.90;;;;;;4915681;28;20048;-76
2023/03/01 04:06:38;;;;;;;21.90;12.15;;;-4.20;99.90;;;;;;4938521;28;20037;-77
2023/03/01 04:09:04;;;;;;;20.17;11.00;;;-4.20;99.90;;;;;;4910287;28;20049;-76
2023/03/01 04:11:29;;;;;;;23.27;11.90;;;-4.20;99.90;;;;;;4931452;28;20036;-76
2023/03/01 04:13:56;;;;;;;19.88;12.13;;;-4.20;99.90;;;;;;4935978;28;20034;-77
2023/03/01 04:16:23;;;;;;;23.25;12.57;;;-4.50;99.90;;;;;;4946227;28;20091;-78
2023/03/01 04:18:48;;;;;;;19.10;12.05;;;-4.50;99.90;;;;;;4926804;28;20146;-77
2023/03/01 04:21:14;;;;;;;22.00;12.25;;;-4.70;99.90;;;;;;4929128;28;20027;-77
2023/03/01 04:23:40;;;;;;;19.90;12.07;;;-4.90;99.90;;;;;;4945845;28;20031;-77
2023/03/01 04:26:06;;;;;;;21.98;11.65;;;-4.80;99.90;;;;;;4933907;28;20087;-77
2023/03/01 04:28:34;;;;;;;23.25;13.32;;;-4.70;99.90;;;;;;4914041;28;20071;-76
2023/03/01 04:31:17;;;;;;;18.15;11.48;;;-4.70;99.90;;;;;;4933698;28;20503;-76
2023/03/01 04:33:46;;;;;;;23.88;12.90;;;-4.60;99.90;;;;;;4947883;28;20450;-77
2023/03/01 04:36:13;;;;;;;20.55;12.20;;;-4.60;99.90;;;;;;4900121;28;20107;-77
2023/03/01 04:38:38;;;;;;;19.50;11.27;;;-4.80;99.90;;;;;;4947371;28;20669;-77
2023/03/01 04:41:08;;;;;;;20.95;12.48;;;-4.90;99.90;;;;;;4942684;28;20054;-77
2023/03/01 04:43:34;;;;;;;20.33;11.75;;;-4.80;99.90;;;;;;4912488;29;20035;-77
2023/03/01 04:46:08;;;;;;;18.70;12.07;;;-4.90;99.90;;;;;;4937664;28;20054;-77
2023/03/01 04:48:37;;;;;;;24.15;12.93;;;-4.90;99.90;;;;;;4939510;28;20040;-77
2023/03/01 04:51:03;;;;;;;16.95;10.98;;;-4.90;99.90;;;;;;4926841;28;20539;-77
2023/03/01 04:53:29;;;;;;;21.45;13.02;;;-4.90;99.90;;;;;;4943441;28;20110;-77
2023/03/01 04:55:55;;;;;;;23.98;12.55;;;-4.90;99.90;;;;;;4915032;28;20032;-77
2023/03/01 04:58:23;;;;;;;22.67;12.30;;;-4.90;99.90;;;;;;4927419;28;20062;-77
2023/03/01 05:00:49;;;;;;;25.10;13.27;;;-5.00;99.90;;;;;;4926869;28;20054;-77
2023/03/01 05:03:17;;;;;;;21.42;13.15;;;-4.90;99.90;;;;;;4911884;28;20078;-77
2023/03/01 05:05:44;;;;;;;25.45;13.82;;;-4.90;99.90;;;;;;4925918;28;20075;-77
2023/03/01 05:08:17;;;;;;;22.98;14.73;;;-5.00;99.90;;;;;;4941987;28;20062;-77
2023/03/01 05:10:46;;;;;;;19.65;12.93;;;-5.00;99.90;;;;;;4914362;28;20488;-78
2023/03/01 05:13:13;;;;;;;23.83;12.77;;;-4.90;99.90;;;;;;4943145;28;20058;-77
2023/03/01 05:15:38;;;;;;;23.45;13.35;;;-4.90;99.90;;;;;;4910674;28;20035;-77
2023/03/01 05:18:07;;;;;;;21.33;12.32;;;-4.80;99.90;;;;;;4948021;28;20034;-76
2023/03/01 05:20:35;;;;;;;26.88;13.05;;;-4.80;99.90;;;;;;4927311;28;20024;-77
2023/03/01 05:23:04;;;;;;;22.52;13.20;;;-4.80;99.90;;;;;;4918705;28;20027;-75
2023/03/01 05:25:32;;;;;;;20.65;13.35;;;-4.80;99.90;;;;;;4925912;28;20812;-77
2023/03/01 05:27:59;;;;;;;25.38;12.45;;;-4.90;99.90;;;;;;4928135;28;20046;-77
2023/03/01 05:30:24;;;;;;;24.50;13.70;;;-4.90;99.90;;;;;;4948953;28;20051;-76
2023/03/01 05:32:55;;;;;;;28.20;13.50;;;-4.90;99.90;;;;;;4934392;28;20692;-77
2023/03/01 05:35:21;;;;;;;20.85;12.25;;;-4.90;99.90;;;;;;4916115;28;20077;-77
2023/03/01 05:37:47;;;;;;;20.17;12.90;;;-4.80;99.90;;;;;;4911804;28;20054;-76
2023/03/01 05:40:17;;;;;;;28.45;13.13;;;-4.90;99.90;;;;;;4931573;28;20038;-77
2023/03/01 05:42:48;;;;;;;22.13;12.27;;;-5.10;99.90;;;;;;4908371;28;20125;-76
2023/03/01 05:45:14;;;;;;;22.95;13.75;;;-5.00;99.90;;;;;;4911555;28;20678;-76
2023/03/01 05:47:43;;;;;;;24.63;13.35;;;-5.00;99.90;;;;;;4908692;28;20036;-77
2023/03/01 05:50:22;;;;;;;22.42;13.52;;;-5.10;99.90;;;;;;4917396;28;20074;-76
2023/03/01 05:52:49;;;;;;;24.90;12.90;;;-5.10;99.90;;;;;;4950698;28;20490;-76
2023/03/01 05:55:18;;;;;;;23.52;13.45;;;-5.10;99.90;;;;;;4939024;28;20058;-76
2023/03/01 05:57:43;;;;;;;24.15;12.73;;;-5.10;99.90;;;;;;4909645;28;20512;-75
2023/03/01 06:00:10;;;;;;;29.17;14.93;;;-4.90;99.90;;;;;;4923900;28;20038;-75
2023/03/01 06:02:36;;;;;;;24.58;14.35;;;-4.90;99.90;;;;;;4924502;28;20039;-74
2023/03/01 06:05:02;;;;;;;20.63;13.25;;;-4.90;99.90;;;;;;4934354;28;20024;-74
2023/03/01 06:07:27;;;;;;;23.75;13.25;;;-5.00;99.90;;;;;;4943657;28;20027;-74
2023/03/01 06:09:53;;;;;;;18.13;12.23;;;-5.10;99.90;;;;;;4925356;28;20050;-74
2023/03/01 06:12:18;;;;;;;20.42;13.00;;;-5.10;99.90;;;;;;4913107;29;20063;-75
2023/03/01 06:14:46;;;;;;;21.98;12.95;;;-5.00;99.90;;;;;;4932082;28;20569;-74
2023/03/01 06:17:11;;;;;;;26.50;14.52;;;-4.90;99.90;;;;;;4922029;28;20118;-74
2023/03/01 06:19:37;;;;;;;22.45;13.02;;;-4.90;99.90;;;;;;4912906;29;20110;-75
2023/03/01 06:22:02;;;;;;;25.45;14.98;;;-4.90;99.90;;;;;;4944844;28;20513;-75
2023/03/01 06:24:28;;;;;;;24.95;13.68;;;-4.90;99.90;;;;;;4931201;28;20034;-75
2023/03/01 06:26:54;;;;;;;21.52;13.35;;;-4.90;99.90;;;;;;4912953;28;20039;-75
2023/03/01 06:29:19;;;;;;;20.95;13.20;;;-4.90;99.90;;;;;;4894277;29;20062;-75
2023/03/01 06:31:45;;;;;;;26.80;14.10;;;-5.00;99.90;;;;;;4942246;28;20023;-75
2023/03/01 06:34:13;;;;;;;23.52;13.20;;;-5.00;99.90;;;;;;4929650;28;20076;-76
2023/03/01 06:36:39;;;;;;;20.08;12.82;;;-5.00;99.90;;;;;;4947167;28;20065;-75
2023/03/01 06:39:05;;;;;;;21.08;13.45;;;-4.90;99.90;;;;;;4910776;28;20154;-74
2023/03/01 06:41:31;;;;;;;20.65;12.35;;;-5.00;99.90;;;;;;4910388;29;20039;-73
2023/03/01 06:43:56;;;;;;;23.38;13.25;;;-4.90;99.90;;;;;;4933061;28;20039;-75
2023/03/01 06:46:22;;;;;;;22.60;14.20;;;-4.90;99.90;;;;;;4932483;29;20082;-74
2023/03/01 06:48:47;;;;;;;23.95;13.23;;;-4.90;99.90;;;;;;4907382;28;20042;-75
2023/03/01 06:51:13;;;;;;;22.55;14.23;;;-4.90;99.90;;;;;;4946424;28;20089;-75
2023/03/01 06:53:38;;;;;;;25.40;13.73;;;-4.90;99.90;;;;;;4952682;28;20038;-74
2023/03/01 06:56:04;;;;;;;22.13;14.73;;;-4.90;99.90;;;;;;4926876;28;20086;-74
2023/03/01 06:58:30;;;;;;;24.40;15.38;;;-4.90;99.90;;;;;;4907505;29;20092;-74
2023/03/01 07:00:55;;;;;;;27.63;15.05;;;-4.90;99.90;;;;;;4910559;28;20028;-74
2023/03/01 07:03:22;;;;;;;25.15;15.13;;;-4.80;99.90;;;;;;4933978;28;20557;-75
2023/03/01 07:05:53;;;;;;;27.30;15.75;;;-4.70;99.90;;;;;;4932770;28;20077;-75
2023/03/01 07:08:19;;;;;;;26.52;15.20;;;-4.70;99.90;;;;;;4911780;28;20518;-74
2023/03/01 07:10:45;;;;;;;30.40;14.65;;;-4.80;99.90;;;;;;4945207;28;20146;-75
2023/03/01 07:13:10;;;;;;;29.73;16.90;;;-4.70;99.90;;;;;;4916405;28;20081;-74
2023/03/01 07:15:36;;;;;;;33.90;17.17;;;-4.70;99.90;;;;;;4922524;28;20522;-74
2023/03/01 07:18:01;;;;;;;25.67;16.13;;;-4.60;99.90;;;;;;4914783;28;20473;-74
2023/03/01 07:20:27;;;;;;;29.80;16.50;;;-4.50;99.90;;;;;;4940021;28;20031;-75
2023/03/01 07:22:53;;;;;;;30.95;17.08;;;-4.50;99.90;;;;;;4921500;28;20046;-75
2023/03/01 07:25:19;;;;;;;33.42;17.25;;;-4.40;99.90;;;;;;4917450;28;20075;-75
2023/03/01 07:27:48;;;;;;;28.25;16.63;;;-4.30;99.90;;;;;;4935279;28;20032;-74
2023/03/01 07:30:14;;;;;;;27.77;15.50;;;-4.30;99.90;;;;;;4915027;28;20493;-75
2023/03/01 07:32:39;;;;;;;28.98;15.95;;;-4.10;99.90;;;;;;4946430;28;20046;-75
2023/03/01 07:35:05;;;;;;;26.25;16.67;;;-4.10;99.90;;;;;;4914757;28;20454;-75
2023/03/01 07:37:31;;;;;;;30.50;16.35;;;-3.80;99.90;;;;;;4932768;28;20128;-74
2023/03/01 07:39:57;;;;;;;26.73;15.73;;;-3.70;99.90;;;;;;4950052;28;20129;-75
2023/03/01 07:42:23;;;;;;;26.55;15.52;;;-3.70;99.90;;;;;;4932897;28;20093;-74
2023/03/01 07:44:48;;;;;;;23.63;14.63;;;-3.30;99.90;;;;;;4935900;28;20067;-74
2023/03/01 07:47:14;;;;;;;23.42;13.88;;;-3.10;99.90;;;;;;4928465;28;20537;-75
2023/03/01 07:49:39;;;;;;;25.73;14.57;;;-2.70;99.90;;;;;;4932109;28;20043;-74
2023/03/01 07:52:05;;;;;;;23.45;13.10;;;-2.60;99.90;;;;;;4923788;28;20414;-75
2023/03/01 07:54:30;;;;;;;23.02;12.00;;;-2.70;99.90;;;;;;4941819;28;20245;-75
2023/03/01 07:56:56;;;;;;;16.58;10.18;;;-2.60;99.90;;;;;;4950737;28;20383;-75
2023/03/01 07:59:28;;;;;;;20.23;11.15;;;-2.60;99.90;;;;;;4939552;28;20040;-75
2023/03/01 08:01:54;;;;;;;19.70;9.68;;;-2.40;99.90;;;;;;4934959;28;20095;-75
2023/03/01 08:04:20;;;;;;;27.55;15.05;;;-2.30;99.90;;;;;;4935769;28;20100;-75
2023/03/01 08:06:45;;;;;;;22.48;12.55;;;-2.10;99.90;;;;;;4937510;28;20134;-75
2023/03/01 08:09:11;;;;;;;24.88;13.95;;;-2.10;99.90;;;;;;4930402;28;20150;-75
2023/03/01 08:11:37;;;;;;;23.77;14.13;;;-2.10;99.90;;;;;;4928502;28;20032;-75
2023/03/01 08:14:02;;;;;;;28.65;14.93;;;-2.10;99.90;;;;;;4949391;28;20054;-75
2023/03/01 08:16:28;;;;;;;26.35;15.30;;;-2.10;99.90;;;;;;4925456;28;20115;-75
2023/03/01 08:18:56;;;;;;;27.67;17.10;;;-2.10;99.90;;;;;;4916738;28;20027;-76
2023/03/01 08:21:22;;;;;;;22.23;13.88;;;-2.00;99.90;;;;;;4920363;28;20070;-75
2023/03/01 08:23:47;;;;;;;28.77;14.90;;;-1.70;99.90;;;;;;4937686;28;20060;-75
2023/03/01 08:26:15;;;;;;;18.70;11.52;;;-1.70;99.90;;;;;;4927219;28;20450;-74
2023/03/01 08:28:41;;;;;;;22.33;14.00;;;-1.20;99.90;;;;;;4916396;28;20032;-74
2023/03/01 08:31:23;;;;;;;25.27;14.10;;;-1.20;99.90;;;;;;4904027;28;20039;-75
2023/03/01 08:33:55;;;;;;;23.25;14.30;;;-1.10;99.90;;;;;;4920984;28;20077;-75
2023/03/01 08:36:21;;;;;;;26.42;14.07;;;-1.40;99.90;;;;;;4931188;28;20035;-74
2023/03/01 08:38:47;;;;;;;25.33;12.85;;;-1.30;99.90;;;;;;4928240;28;20496;-74
2023/03/01 08:41:12;;;;;;;21.88;12.93;;;-0.90;99.90;;;;;;4929899;28;20046;-75
2023/03/01 08:43:38;;;;;;;18.85;13.15;;;-0.60;99.90;;;;;;4943875;28;20043;-74
2023/03/01 08:46:04;;;;;;;20.08;12.45;;;-0.50;99.90;;;;;;4939775;28;20119;-75
2023/03/01 08:48:29;;;;;;;18.77;12.30;;;-0.50;99.90;;;;;;4922979;28;20028;-75
2023/03/01 08:50:55;;;;;;;18.25;11.55;;;-0.70;99.90;;;;;;4912846;28;20039;-75
2023/03/01 08:53:21;;;;;;;20.80;11.00;;;-0.50;99.90;;;;;;4932887;28;20099;-75
2023/03/01 08:55:46;;;;;;;20.17;11.68;;;-0.80;99.90;;;;;;4960187;28;20081;-76
2023/03/01 08:58:12;;;;;;;18.75;11.38;;;-1.00;99.90;;;;;;4933825;28;20547;-74
2023/03/01 09:00:39;;;;;;;21.83;10.00;;;-1.30;99.90;;;;;;4926308;28;20099;-75
2023/03/01 09:03:05;;;;;;;18.17;9.90;;;-1.50;99.90;;;;;;4932356;28;20561;-75
2023/03/01 09:05:32;;;;;;;18.95;12.18;;;-1.30;99.90;;;;;;4932836;28;20039;-75
2023/03/01 09:07:58;;;;;;;16.42;10.48;;;-1.30;99.90;;;;;;4952987;28;20050;-75
2023/03/01 09:10:24;;;;;;;21.05;10.43;;;-1.20;99.90;;;;;;4910281;28;20251;-75
2023/03/01 09:12:49;;;;;;;22.27;11.00;;;-0.80;99.90;;;;;;4931078;28;20139;-75
2023/03/01 09:15:15;;;;;;;19.02;11.25;;;-0.60;99.90;;;;;;4934701;28;20120;-74
2023/03/01 09:17:40;;;;;;;17.15;10.27;;;-0.60;99.90;;;;;;4954608;28;20572;-75
2023/03/01 09:20:06;;;;;;;18.88;11.57;;;-0.60;99.90;;;;;;4929926;28;20035;-74
2023/03/01 09:22:34;;;;;;;17.65;11.38;;;-0.50;99.90;;;;;;4930507;28;20031;-74
2023/03/01 09:25:00;;;;;;;19.20;9.60;;;-0.50;99.90;;;;;;4942527;28;20035;-74
2023/03/01 09:27:25;;;;;;;14.13;10.82;;;0.50;99.90;;;;;;4914575;28;20081;-77
2023/03/01 09:29:51;;;;;;;21.52;12.80;;;0.40;99.90;;;;;;4921047;28;20042;-76
2023/03/01 09:32:16;;;;;;;15.77;8.98;;;0.00;99.90;;;;;;4916007;28;20042;-75
2023/03/01 09:37:27;;;;;;;16.98;9.82;;;0.60;99.90;;;;;;4917711;28;21564;-75
2023/03/01 09:39:52;;;;;;;18.80;9.93;;;1.50;99.90;;;;;;4928934;28;20043;-75
2023/03/01 09:42:18;;;;;;;16.40;10.07;;;0.60;99.90;;;;;;4914262;29;20023;-75
2023/03/01 09:44:48;;;;;;;14.73;9.65;;;0.00;99.90;;;;;;4929726;28;20028;-76
2023/03/01 09:47:21;;;;;;;18.77;10.10;;;-0.10;99.90;;;;;;4907390;28;20110;-76
2023/03/01 09:50:11;;;;;;;14.65;9.32;;;0.20;99.90;;;;;;4915188;28;20039;-76
2023/03/01 09:52:58;;;;;;;14.48;8.90;;;0.50;99.90;;;;;;4942441;28;20612;-76
2023/03/01 09:55:28;;;;;;;14.13;9.63;;;0.30;99.90;;;;;;4919494;28;20031;-75
2023/03/01 09:57:56;;;;;;;15.07;9.75;;;0.40;99.90;;;;;;4901839;28;20047;-76
2023/03/01 10:00:24;;;;;;;17.20;9.75;;;0.90;99.90;;;;;;4894795;28;20043;-76
2023/03/01 10:02:54;;;;;;;15.23;9.20;;;0.60;99.90;;;;;;4919735;28;20035;-77
2023/03/01 10:05:29;;;;;;;14.43;7.82;;;0.90;99.90;;;;;;4925418;28;20091;-77
2023/03/01 10:08:29;;;;;;;12.67;8.63;;;1.50;99.90;;;;;;4933142;28;20461;-77
2023/03/01 10:10:54;;;;;;;14.13;9.60;;;1.50;99.90;;;;;;4927526;28;20612;-76
2023/03/01 10:13:27;;;;;;;15.43;9.77;;;1.10;99.90;;;;;;4892458;28;20489;-76
2023/03/01 10:15:57;;;;;;;14.90;8.95;;;0.50;99.90;;;;;;4923599;28;20074;-76
2023/03/01 10:18:27;;;;;;;15.68;8.93;;;1.00;99.90;;;;;;4908750;28;20464;-76
2023/03/01 10:21:00;;;;;;;15.32;9.00;;;1.10;99.90;;;;;;4915929;28;20492;-76
2023/03/01 10:23:30;;;;;;;12.00;8.18;;;1.20;99.90;;;;;;4918209;28;20494;-76
2023/03/01 10:26:20;;;;;;;14.75;8.48;;;1.00;99.90;;;;;;4892708;29;20040;-76
2023/03/01 10:29:05;;;;;;;14.80;8.40;;;1.30;99.90;;;;;;4909021;29;20067;-76
2023/03/01 10:31:49;;;;;;;13.90;8.07;;;1.60;99.90;;;;;;4902064;28;20072;-77
2023/03/01 10:34:14;;;;;;;14.23;8.65;;;1.30;99.90;;;;;;4912471;28;20556;-76
2023/03/01 10:36:41;;;;;;;13.52;7.57;;;0.90;99.90;;;;;;4943964;28;20027;-78
2023/03/01 10:39:13;;;;;;;17.30;7.97;;;1.80;99.90;;;;;;4902956;28;20399;-76
2023/03/01 10:41:53;;;;;;;11.57;7.75;;;1.40;99.90;;;;;;4894383;28;20071;-76
2023/03/01 10:44:46;;;;;;;13.60;7.93;;;1.50;99.90;;;;;;4909803;28;20038;-76
2023/03/01 10:47:23;;;;;;;13.77;7.82;;;1.60;99.90;;;;;;4955566;28;20027;-76
2023/03/01 10:50:00;;;;;;;8.32;6.50;;;2.00;99.90;;;;;;4918856;28;20192;-76
2023/03/01 10:52:30;;;;;;;11.95;6.63;;;2.30;99.90;;;;;;4907678;28;20431;-76
2023/03/01 10:55:12;;;;;;;9.68;6.10;;;2.60;99.90;;;;;;4897886;28;20054;-76
2023/03/01 10:57:40;;;;;;;10.07;7.10;;;3.00;99.90;;;;;;4941729;28;20118;-76
2023/03/01 11:00:22;;;;;;;12.73;7.03;;;2.20;99.90;;;;;;4916095;28;20059;-76
2023/03/01 11:03:12;;;;;;;13.30;6.85;;;2.80;99.90;;;;;;4930577;28;20067;-75
2023/03/01 11:05:39;;;;;;;9.27;6.38;;;3.80;99.90;;;;;;4910317;28;20067;-76
2023/03/01 11:08:04;;;;;;;11.93;6.53;;;2.70;99.90;;;;;;4898243;28;20066;-76
2023/03/01 11:10:32;;;;;;;13.05;7.28;;;3.00;99.90;;;;;;4913235;28;20487;-80
2023/03/01 11:13:17;;;;;;;9.60;6.65;;;2.80;99.90;;;;;;4896277;28;20046;-77
2023/03/01 11:15:43;;;;;;;11.63;7.15;;;3.10;99.90;;;;;;4925066;28;20495;-76
2023/03/01 11:18:19;;;;;;;11.57;7.13;;;2.70;99.90;;;;;;4932767;28;20085;-77
2023/03/01 11:20:45;;;;;;;10.02;7.35;;;3.00;99.90;;;;;;4897408;28;20475;-76
2023/03/01 11:23:14;;;;;;;10.18;7.03;;;3.10;99.90;;;;;;4919286;28;20031;-77
2023/03/01 11:25:56;;;;;;;12.23;5.72;;;3.00;99.90;;;;;;4909148;28;20508;-77
2023/03/01 11:28:22;;;;;;;13.07;6.80;;;3.20;99.90;;;;;;4932769;28;20135;-77
2023/03/01 11:30:48;;;;;;;11.27;7.85;;;3.20;99.90;;;;;;4920052;28;20478;-77
2023/03/01 11:33:17;;;;;;;11.38;7.50;;;3.90;99.90;;;;;;4950972;28;20042;-77
2023/03/01 11:35:48;;;;;;;9.25;6.88;;;3.90;99.90;;;;;;4907211;28;20484;-77
2023/03/01 11:38:24;;;;;;;11.40;7.05;;;4.20;99.90;;;;;;4590125;28;9999920;-77
2023/03/01 11:41:11;;;;;;;14.32;6.57;;;5.10;99.90;;;;;;4908531;28;20043;-77
2023/03/01 11:43:45;;;;;;;;;;;5.30;99.90;;;;;;4947293;28;20066;-77
2023/03/01 11:46:20;;;;;;;9.32;6.40;;;4.60;99.90;;;;;;4943321;28;19941;-77
2023/03/01 11:49:01;;;;;;;11.00;6.47;;;4.60;99.90;;;;;;4938715;28;20035;-77
2023/03/01 11:51:47;;;;;;;14.80;7.78;;;4.70;99.90;;;;;;4929521;28;20274;-77
2023/03/01 11:54:27;;;;;;;13.50;7.43;;;;;;;;;;4916360;28;20506;-77
2023/03/01 11:56:58;;;;;;;15.43;7.40;;;5.30;99.90;;;;;;4929149;28;20031;-77
2023/03/01 11:59:51;;;;;;;15.50;8.20;;;5.90;99.90;;;;;;4924217;28;20035;-78
2023/03/01 12:02:44;;;;;;;13.50;6.60;;;5.00;99.90;;;;;;4930190;28;20053;-78
2023/03/01 12:05:25;;;;;;;10.20;6.70;;;4.40;99.90;;;;;;4939564;28;20490;-78
2023/03/01 12:08:03;;;;;;;11.45;7.32;;;5.30;99.90;;;;;;4923029;28;20087;-77
2023/03/01 12:10:49;;;;;;;14.45;7.85;;;5.00;99.90;;;;;;4929099;28;20043;-78
2023/03/01 12:13:35;;;;;;;;;;;4.80;99.90;;;;;;4900972;28;20487;-78
2023/03/01 12:16:18;;;;;;;9.82;7.05;;;4.40;99.90;;;;;;4939082;28;20357;-78
2023/03/01 12:19:12;;;;;;;17.13;6.60;;;3.90;99.90;;;;;;4928994;28;20047;-78
2023/03/01 12:21:57;;;;;;;12.30;6.82;;;4.20;99.90;;;;;;4903477;28;20038;-78
2023/03/01 12:25:15;;;;;;;9.35;5.97;;;4.50;99.90;;;;;;4928898;28;20090;-78
2023/03/01 12:28:01;;;;;;;10.50;7.40;;;5.20;99.90;;;;;;4902883;29;20039;-78
2023/03/01 12:30:29;;;;;;;13.23;8.20;;;6.10;99.90;;;;;;4891035;28;20039;-78
2023/03/01 12:33:17;;;;;;;11.65;6.82;;;6.40;99.90;;;;;;4953382;28;20035;-78
2023/03/01 12:35:43;;;;;;;9.52;6.82;;;6.70;99.90;;;;;;4939112;28;20041;-78
2023/03/01 12:38:18;;;;;;;11.05;5.93;;;6.40;99.90;;;;;;4944693;28;20042;-78
2023/03/01 12:41:13;;;;;;;12.30;8.02;;;7.10;99.90;;;;;;4907651;28;20040;-79
2023/03/01 12:43:46;;;;;;;10.80;6.85;;;6.70;99.90;;;;;;4908241;28;20492;-78
2023/03/01 12:46:25;;;;;;;11.75;8.15;;;6.50;99.90;;;;;;4939236;28;20039;-78
2023/03/01 12:48:59;;;;;;;13.98;7.15;;;5.70;99.90;;;;;;4939656;28;20122;-78